sensor_id;sensor_type;location;lat;lon;timestamp;P1;durP1;ratioP1;P2;durP2;ratioP2
75386;SDS011;63966;47.914;22.266;2022-11-15T00:00:42;29.90;;;15.00;;
75386;SDS011;63966;47.914;22.266;2022-11-15T00:04:04;32.73;;;14.83;;
75386;SDS011;63966;47.914;22.266;2022-11-15T00:07:27;40.83;;;16.48;;
75386;SDS011;63966;47.914;22.266;2022-11-15T00:11:10;38.88;;;16.92;;
75386;SDS011;63966;47.914;22.266;2022-11-15T00:14:32;29.85;;;14.30;;
75386;SDS011;63966;47.914;22.266;2022-11-15T00:17:54;30.70;;;14.23;;
75386;SDS011;63966;47.914;22.266;2022-11-15T00:21:15;34.63;;;15.20;;
75386;SDS011;63966;47.914;22.266;2022-11-15T00:24:39;33.08;;;14.85;;
75386;SDS011;63966;47.914;22.266;2022-11-15T00:28:01;22.23;;;12.02;;
75386;SDS011;63966;47.914;22.266;2022-11-15T00:31:23;27.55;;;14.13;;
75386;SDS011;63966;47.914;22.266;2022-11-15T00:34:45;28.08;;;14.13;;
75386;SDS011;63966;47.914;22.266;2022-11-15T00:38:07;30.67;;;15.07;;
75386;SDS011;63966;47.914;22.266;2022-11-15T00:41:29;30.17;;;13.85;;
75386;SDS011;63966;47.914;22.266;2022-11-15T00:44:51;30.13;;;15.68;;
75386;SDS011;63966;47.914;22.266;2022-11-15T00:48:12;28.48;;;14.98;;
75386;SDS011;63966;47.914;22.266;2022-11-15T00:51:35;27.92;;;14.15;;
75386;SDS011;63966;47.914;22.266;2022-11-15T00:54:57;27.30;;;13.83;;
75386;SDS011;63966;47.914;22.266;2022-11-15T00:58:18;26.60;;;14.02;;
75386;SDS011;63966;47.914;22.266;2022-11-15T01:01:40;28.65;;;13.05;;
75386;SDS011;63966;47.914;22.266;2022-11-15T01:05:02;28.27;;;13.80;;
75386;SDS011;63966;47.914;22.266;2022-11-15T01:08:24;27.38;;;14.23;;
75386;SDS011;63966;47.914;22.266;2022-11-15T01:11:46;24.38;;;13.20;;
75386;SDS011;63966;47.914;22.266;2022-11-15T01:15:08;28.30;;;14.20;;
75386;SDS011;63966;47.914;22.266;2022-11-15T01:18:30;27.50;;;14.35;;
75386;SDS011;63966;47.914;22.266;2022-11-15T01:21:52;27.23;;;13.70;;
75386;SDS011;63966;47.914;22.266;2022-11-15T01:25:14;30.02;;;14.88;;
75386;SDS011;63966;47.914;22.266;2022-11-15T01:28:37;30.65;;;15.07;;
75386;SDS011;63966;47.914;22.266;2022-11-15T01:32:00;30.50;;;15.52;;
75386;SDS011;63966;47.914;22.266;2022-11-15T01:35:22;34.22;;;15.68;;
75386;SDS011;63966;47.914;22.266;2022-11-15T01:38:45;29.88;;;15.40;;
75386;SDS011;63966;47.914;22.266;2022-11-15T01:42:10;33.97;;;16.98;;
75386;SDS011;63966;47.914;22.266;2022-11-15T01:45:34;35.30;;;17.08;;
75386;SDS011;63966;47.914;22.266;2022-11-15T01:49:13;34.20;;;17.00;;
75386;SDS011;63966;47.914;22.266;2022-11-15T01:52:37;35.67;;;16.90;;
75386;SDS011;63966;47.914;22.266;2022-11-15T01:56:02;29.83;;;15.52;;
75386;SDS011;63966;47.914;22.266;2022-11-15T01:59:26;27.80;;;13.52;;
75386;SDS011;63966;47.914;22.266;2022-11-15T02:02:48;26.65;;;13.10;;
75386;SDS011;63966;47.914;22.266;2022-11-15T02:06:11;29.37;;;13.20;;
75386;SDS011;63966;47.914;22.266;2022-11-15T02:09:33;27.20;;;13.80;;
75386;SDS011;63966;47.914;22.266;2022-11-15T02:12:58;27.70;;;14.30;;
75386;SDS011;63966;47.914;22.266;2022-11-15T02:38:51;27.97;;;12.30;;
75386;SDS011;63966;47.914;22.266;2022-11-15T02:42:32;29.70;;;13.43;;
75386;SDS011;63966;47.914;22.266;2022-11-15T02:46:24;27.80;;;12.25;;
75386;SDS011;63966;47.914;22.266;2022-11-15T02:50:21;25.85;;;12.20;;
75386;SDS011;63966;47.914;22.266;2022-11-15T02:53:46;26.43;;;12.53;;
75386;SDS011;63966;47.914;22.266;2022-11-15T02:57:12;24.15;;;12.10;;
75386;SDS011;63966;47.914;22.266;2022-11-15T03:00:46;24.83;;;11.98;;
75386;SDS011;63966;47.914;22.266;2022-11-15T03:11:40;24.50;;;11.73;;
75386;SDS011;63966;47.914;22.266;2022-11-15T03:15:12;26.80;;;12.20;;
75386;SDS011;63966;47.914;22.266;2022-11-15T03:18:42;23.42;;;12.02;;
75386;SDS011;63966;47.914;22.266;2022-11-15T03:22:15;29.15;;;14.15;;
75386;SDS011;63966;47.914;22.266;2022-11-15T03:25:43;28.73;;;12.83;;
75386;SDS011;63966;47.914;22.266;2022-11-15T03:29:09;27.13;;;12.82;;
75386;SDS011;63966;47.914;22.266;2022-11-15T03:32:41;28.40;;;13.68;;
75386;SDS011;63966;47.914;22.266;2022-11-15T03:36:10;26.73;;;13.20;;
75386;SDS011;63966;47.914;22.266;2022-11-15T03:39:33;28.33;;;13.00;;
75386;SDS011;63966;47.914;22.266;2022-11-15T03:42:59;34.83;;;15.13;;
75386;SDS011;63966;47.914;22.266;2022-11-15T03:46:32;28.38;;;13.35;;
75386;SDS011;63966;47.914;22.266;2022-11-15T03:50:01;26.63;;;12.40;;
75386;SDS011;63966;47.914;22.266;2022-11-15T03:53:35;26.55;;;13.05;;
75386;SDS011;63966;47.914;22.266;2022-11-15T03:56:56;29.40;;;13.55;;
75386;SDS011;63966;47.914;22.266;2022-11-15T04:00:18;32.45;;;13.40;;
75386;SDS011;63966;47.914;22.266;2022-11-15T04:03:40;29.05;;;13.00;;
75386;SDS011;63966;47.914;22.266;2022-11-15T04:07:02;24.67;;;12.27;;
75386;SDS011;63966;47.914;22.266;2022-11-15T04:10:25;28.30;;;12.25;;
75386;SDS011;63966;47.914;22.266;2022-11-15T04:13:46;27.88;;;12.30;;
75386;SDS011;63966;47.914;22.266;2022-11-15T04:17:08;25.13;;;12.23;;
75386;SDS011;63966;47.914;22.266;2022-11-15T04:20:32;25.83;;;11.70;;
75386;SDS011;63966;47.914;22.266;2022-11-15T04:24:12;23.98;;;12.40;;
75386;SDS011;63966;47.914;22.266;2022-11-15T04:27:34;28.65;;;12.23;;
75386;SDS011;63966;47.914;22.266;2022-11-15T04:30:56;25.25;;;12.57;;
75386;SDS011;63966;47.914;22.266;2022-11-15T04:34:18;25.33;;;11.27;;
75386;SDS011;63966;47.914;22.266;2022-11-15T04:37:40;20.60;;;10.35;;
75386;SDS011;63966;47.914;22.266;2022-11-15T04:41:08;25.23;;;11.98;;
75386;SDS011;63966;47.914;22.266;2022-11-15T04:44:30;23.67;;;12.90;;
75386;SDS011;63966;47.914;22.266;2022-11-15T04:47:52;24.80;;;12.33;;
75386;SDS011;63966;47.914;22.266;2022-11-15T04:51:14;23.70;;;11.43;;
75386;SDS011;63966;47.914;22.266;2022-11-15T04:54:35;23.88;;;11.23;;
75386;SDS011;63966;47.914;22.266;2022-11-15T04:58:01;28.15;;;12.05;;
75386;SDS011;63966;47.914;22.266;2022-11-15T05:01:24;22.50;;;11.77;;
75386;SDS011;63966;47.914;22.266;2022-11-15T05:04:46;23.80;;;11.10;;
75386;SDS011;63966;47.914;22.266;2022-11-15T05:08:08;33.90;;;13.70;;
75386;SDS011;63966;47.914;22.266;2022-11-15T05:11:31;37.88;;;15.00;;
75386;SDS011;63966;47.914;22.266;2022-11-15T05:14:53;42.03;;;15.73;;
75386;SDS011;63966;47.914;22.266;2022-11-15T05:18:15;38.17;;;17.33;;
75386;SDS011;63966;47.914;22.266;2022-11-15T05:21:43;50.25;;;20.02;;
75386;SDS011;63966;47.914;22.266;2022-11-15T05:25:05;83.15;;;32.85;;
75386;SDS011;63966;47.914;22.266;2022-11-15T05:28:27;45.35;;;19.75;;
75386;SDS011;63966;47.914;22.266;2022-11-15T05:31:50;52.80;;;17.70;;
75386;SDS011;63966;47.914;22.266;2022-11-15T05:35:13;33.85;;;13.85;;
75386;SDS011;63966;47.914;22.266;2022-11-15T05:38:41;32.40;;;14.00;;
75386;SDS011;63966;47.914;22.266;2022-11-15T05:45:31;41.43;;;15.77;;
75386;SDS011;63966;47.914;22.266;2022-11-15T05:48:54;41.83;;;17.23;;
75386;SDS011;63966;47.914;22.266;2022-11-15T05:52:19;53.30;;;21.05;;
75386;SDS011;63966;47.914;22.266;2022-11-15T05:55:45;43.97;;;18.15;;
75386;SDS011;63966;47.914;22.266;2022-11-15T05:59:07;48.20;;;18.03;;
75386;SDS011;63966;47.914;22.266;2022-11-15T06:02:29;57.65;;;19.85;;
75386;SDS011;63966;47.914;22.266;2022-11-15T06:05:51;50.35;;;18.70;;
75386;SDS011;63966;47.914;22.266;2022-11-15T06:09:13;63.78;;;21.75;;
75386;SDS011;63966;47.914;22.266;2022-11-15T06:12:35;90.67;;;29.43;;
75386;SDS011;63966;47.914;22.266;2022-11-15T06:15:56;105.72;;;30.08;;
75386;SDS011;63966;47.914;22.266;2022-11-15T06:19:19;104.53;;;32.33;;
75386;SDS011;63966;47.914;22.266;2022-11-15T06:22:41;59.30;;;20.85;;
75386;SDS011;63966;47.914;22.266;2022-11-15T06:26:03;50.15;;;20.05;;
75386;SDS011;63966;47.914;22.266;2022-11-15T06:29:25;54.55;;;19.90;;
75386;SDS011;63966;47.914;22.266;2022-11-15T06:32:47;49.45;;;18.48;;
75386;SDS011;63966;47.914;22.266;2022-11-15T06:36:09;45.15;;;19.60;;
75386;SDS011;63966;47.914;22.266;2022-11-15T06:39:38;63.55;;;24.00;;
75386;SDS011;63966;47.914;22.266;2022-11-15T06:42:59;79.47;;;28.43;;
75386;SDS011;63966;47.914;22.266;2022-11-15T06:46:21;66.10;;;25.02;;
75386;SDS011;63966;47.914;22.266;2022-11-15T06:49:43;63.85;;;23.73;;
75386;SDS011;63966;47.914;22.266;2022-11-15T06:53:05;70.95;;;25.55;;
75386;SDS011;63966;47.914;22.266;2022-11-15T06:56:27;95.93;;;33.15;;
75386;SDS011;63966;47.914;22.266;2022-11-15T06:59:49;62.57;;;25.80;;
75386;SDS011;63966;47.914;22.266;2022-11-15T07:03:11;115.18;;;36.22;;
75386;SDS011;63966;47.914;22.266;2022-11-15T07:06:33;63.28;;;25.52;;
75386;SDS011;63966;47.914;22.266;2022-11-15T07:09:55;56.33;;;23.73;;
75386;SDS011;63966;47.914;22.266;2022-11-15T07:13:17;49.00;;;21.48;;
75386;SDS011;63966;47.914;22.266;2022-11-15T07:16:38;61.03;;;23.97;;
75386;SDS011;63966;47.914;22.266;2022-11-15T07:20:00;58.67;;;22.83;;
75386;SDS011;63966;47.914;22.266;2022-11-15T07:23:22;49.85;;;18.98;;
75386;SDS011;63966;47.914;22.266;2022-11-15T07:26:45;52.05;;;18.30;;
75386;SDS011;63966;47.914;22.266;2022-11-15T07:30:07;38.92;;;18.38;;
75386;SDS011;63966;47.914;22.266;2022-11-15T07:33:29;52.23;;;21.07;;
75386;SDS011;63966;47.914;22.266;2022-11-15T07:36:52;42.78;;;18.83;;
75386;SDS011;63966;47.914;22.266;2022-11-15T07:40:14;47.80;;;20.52;;
75386;SDS011;63966;47.914;22.266;2022-11-15T07:43:36;46.05;;;19.52;;
75386;SDS011;63966;47.914;22.266;2022-11-15T07:46:58;45.13;;;18.67;;
75386;SDS011;63966;47.914;22.266;2022-11-15T07:50:21;43.67;;;18.03;;
75386;SDS011;63966;47.914;22.266;2022-11-15T07:53:44;59.73;;;25.60;;
75386;SDS011;63966;47.914;22.266;2022-11-15T07:57:05;55.45;;;24.27;;
75386;SDS011;63966;47.914;22.266;2022-11-15T08:00:30;58.35;;;28.75;;
75386;SDS011;63966;47.914;22.266;2022-11-15T08:03:53;49.45;;;24.02;;
75386;SDS011;63966;47.914;22.266;2022-11-15T08:07:14;44.60;;;21.97;;
75386;SDS011;63966;47.914;22.266;2022-11-15T08:10:37;45.67;;;20.27;;
75386;SDS011;63966;47.914;22.266;2022-11-15T08:14:00;43.05;;;22.05;;
75386;SDS011;63966;47.914;22.266;2022-11-15T08:17:23;43.50;;;21.80;;
75386;SDS011;63966;47.914;22.266;2022-11-15T08:20:47;45.65;;;22.48;;
75386;SDS011;63966;47.914;22.266;2022-11-15T08:24:09;43.57;;;23.03;;
75386;SDS011;63966;47.914;22.266;2022-11-15T08:27:31;38.27;;;20.87;;
75386;SDS011;63966;47.914;22.266;2022-11-15T08:30:54;41.72;;;19.80;;
75386;SDS011;63966;47.914;22.266;2022-11-15T08:34:16;35.22;;;18.48;;
75386;SDS011;63966;47.914;22.266;2022-11-15T08:37:38;27.75;;;14.95;;
75386;SDS011;63966;47.914;22.266;2022-11-15T08:41:02;33.73;;;18.23;;
75386;SDS011;63966;47.914;22.266;2022-11-15T08:44:26;31.73;;;16.63;;
75386;SDS011;63966;47.914;22.266;2022-11-15T08:47:48;31.17;;;15.45;;
75386;SDS011;63966;47.914;22.266;2022-11-15T08:51:14;25.65;;;14.75;;
75386;SDS011;63966;47.914;22.266;2022-11-15T08:54:36;22.80;;;11.98;;
75386;SDS011;63966;47.914;22.266;2022-11-15T08:57:57;28.10;;;14.63;;
75386;SDS011;63966;47.914;22.266;2022-11-15T09:01:21;26.10;;;12.77;;
75386;SDS011;63966;47.914;22.266;2022-11-15T09:04:44;22.50;;;11.52;;
75386;SDS011;63966;47.914;22.266;2022-11-15T09:08:06;23.98;;;13.13;;
75386;SDS011;63966;47.914;22.266;2022-11-15T09:11:48;20.40;;;11.20;;
75386;SDS011;63966;47.914;22.266;2022-11-15T09:15:11;24.20;;;12.53;;
75386;SDS011;63966;47.914;22.266;2022-11-15T09:18:33;24.17;;;11.33;;
75386;SDS011;63966;47.914;22.266;2022-11-15T09:21:55;21.90;;;11.50;;
75386;SDS011;63966;47.914;22.266;2022-11-15T09:25:17;18.17;;;10.27;;
75386;SDS011;63966;47.914;22.266;2022-11-15T09:28:39;20.10;;;9.98;;
75386;SDS011;63966;47.914;22.266;2022-11-15T09:32:02;18.97;;;10.77;;
75386;SDS011;63966;47.914;22.266;2022-11-15T09:35:24;19.20;;;10.77;;
75386;SDS011;63966;47.914;22.266;2022-11-15T09:38:46;21.92;;;12.00;;
75386;SDS011;63966;47.914;22.266;2022-11-15T09:42:23;19.48;;;11.85;;
75386;SDS011;63966;47.914;22.266;2022-11-15T09:49:24;16.23;;;10.53;;
75386;SDS011;63966;47.914;22.266;2022-11-15T09:52:41;19.83;;;10.83;;
75386;SDS011;63966;47.914;22.266;2022-11-15T09:55:52;19.15;;;10.98;;
75386;SDS011;63966;47.914;22.266;2022-11-15T10:02:19;20.45;;;11.57;;
75386;SDS011;63966;47.914;22.266;2022-11-15T10:05:26;20.20;;;10.80;;
75386;SDS011;63966;47.914;22.266;2022-11-15T10:11:46;19.00;;;10.43;;
75386;SDS011;63966;47.914;22.266;2022-11-15T10:14:58;17.45;;;10.00;;
75386;SDS011;63966;47.914;22.266;2022-11-15T10:21:17;16.00;;;10.07;;
75386;SDS011;63966;47.914;22.266;2022-11-15T10:24:34;16.67;;;10.07;;
75386;SDS011;63966;47.914;22.266;2022-11-15T10:27:42;17.73;;;10.02;;
75386;SDS011;63966;47.914;22.266;2022-11-15T10:30:53;18.02;;;10.40;;
75386;SDS011;63966;47.914;22.266;2022-11-15T10:37:28;20.13;;;11.73;;
75386;SDS011;63966;47.914;22.266;2022-11-15T10:40:35;17.93;;;10.73;;
75386;SDS011;63966;47.914;22.266;2022-11-15T10:43:40;17.35;;;10.23;;
75386;SDS011;63966;47.914;22.266;2022-11-15T10:46:46;20.35;;;10.80;;
75386;SDS011;63966;47.914;22.266;2022-11-15T10:49:55;18.38;;;10.45;;
75386;SDS011;63966;47.914;22.266;2022-11-15T10:53:00;18.43;;;10.77;;
75386;SDS011;63966;47.914;22.266;2022-11-15T10:56:06;18.97;;;11.30;;
75386;SDS011;63966;47.914;22.266;2022-11-15T10:59:19;18.30;;;10.73;;
75386;SDS011;63966;47.914;22.266;2022-11-15T11:05:33;19.38;;;10.63;;
75386;SDS011;63966;47.914;22.266;2022-11-15T11:08:56;17.97;;;10.17;;
75386;SDS011;63966;47.914;22.266;2022-11-15T11:12:02;17.23;;;10.33;;
75386;SDS011;63966;47.914;22.266;2022-11-15T11:15:09;18.95;;;10.93;;
75386;SDS011;63966;47.914;22.266;2022-11-15T11:18:19;20.15;;;11.68;;
75386;SDS011;63966;47.914;22.266;2022-11-15T11:21:49;19.55;;;10.90;;
75386;SDS011;63966;47.914;22.266;2022-11-15T11:31:40;19.95;;;11.10;;
75386;SDS011;63966;47.914;22.266;2022-11-15T11:35:34;19.30;;;10.85;;
75386;SDS011;63966;47.914;22.266;2022-11-15T11:48:10;20.73;;;11.43;;
75386;SDS011;63966;47.914;22.266;2022-11-15T11:51:21;20.50;;;12.57;;
75386;SDS011;63966;47.914;22.266;2022-11-15T11:54:41;20.75;;;11.60;;
75386;SDS011;63966;47.914;22.266;2022-11-15T11:58:12;17.80;;;10.73;;
75386;SDS011;63966;47.914;22.266;2022-11-15T12:01:45;18.00;;;11.17;;
75386;SDS011;63966;47.914;22.266;2022-11-15T12:04:50;18.88;;;11.48;;
75386;SDS011;63966;47.914;22.266;2022-11-15T12:08:15;18.55;;;11.55;;
75386;SDS011;63966;47.914;22.266;2022-11-15T12:11:26;19.85;;;11.73;;
75386;SDS011;63966;47.914;22.266;2022-11-15T12:14:48;19.43;;;11.43;;
75386;SDS011;63966;47.914;22.266;2022-11-15T12:18:04;19.70;;;11.47;;
75386;SDS011;63966;47.914;22.266;2022-11-15T12:21:21;18.58;;;11.35;;
75386;SDS011;63966;47.914;22.266;2022-11-15T12:24:41;19.80;;;11.40;;
75386;SDS011;63966;47.914;22.266;2022-11-15T12:27:53;21.70;;;12.77;;
75386;SDS011;63966;47.914;22.266;2022-11-15T12:34:43;19.53;;;11.73;;
75386;SDS011;63966;47.914;22.266;2022-11-15T12:37:50;19.25;;;12.07;;
75386;SDS011;63966;47.914;22.266;2022-11-15T12:41:13;20.42;;;12.05;;
75386;SDS011;63966;47.914;22.266;2022-11-15T12:47:38;18.80;;;11.90;;
75386;SDS011;63966;47.914;22.266;2022-11-15T12:53:57;20.48;;;12.68;;
75386;SDS011;63966;47.914;22.266;2022-11-15T13:03:18;20.77;;;12.60;;
75386;SDS011;63966;47.914;22.266;2022-11-15T13:06:37;19.83;;;12.60;;
75386;SDS011;63966;47.914;22.266;2022-11-15T13:12:52;22.92;;;13.00;;
75386;SDS011;63966;47.914;22.266;2022-11-15T13:15:56;25.20;;;14.40;;
75386;SDS011;63966;47.914;22.266;2022-11-15T13:19:01;22.27;;;13.17;;
75386;SDS011;63966;47.914;22.266;2022-11-15T13:22:08;20.10;;;12.43;;
75386;SDS011;63966;47.914;22.266;2022-11-15T13:28:43;20.25;;;12.32;;
75386;SDS011;63966;47.914;22.266;2022-11-15T13:31:49;24.42;;;13.10;;
75386;SDS011;63966;47.914;22.266;2022-11-15T13:34:53;20.83;;;12.90;;
75386;SDS011;63966;47.914;22.266;2022-11-15T13:37:56;20.00;;;12.47;;
75386;SDS011;63966;47.914;22.266;2022-11-15T13:41:17;20.58;;;11.70;;
75386;SDS011;63966;47.914;22.266;2022-11-15T13:44:23;18.58;;;11.50;;
75386;SDS011;63966;47.914;22.266;2022-11-15T13:47:29;20.60;;;12.77;;
75386;SDS011;63966;47.914;22.266;2022-11-15T13:50:34;25.73;;;15.20;;
75386;SDS011;63966;47.914;22.266;2022-11-15T13:53:41;26.10;;;14.93;;
75386;SDS011;63966;47.914;22.266;2022-11-15T13:56:56;26.48;;;16.35;;
75386;SDS011;63966;47.914;22.266;2022-11-15T14:00:06;29.13;;;17.27;;
75386;SDS011;63966;47.914;22.266;2022-11-15T14:03:34;36.00;;;20.95;;
75386;SDS011;63966;47.914;22.266;2022-11-15T14:06:45;44.20;;;23.53;;
75386;SDS011;63966;47.914;22.266;2022-11-15T14:09:51;31.57;;;17.93;;
75386;SDS011;63966;47.914;22.266;2022-11-15T14:12:54;30.38;;;16.42;;
75386;SDS011;63966;47.914;22.266;2022-11-15T14:16:17;29.77;;;16.52;;
75386;SDS011;63966;47.914;22.266;2022-11-15T14:22:27;40.77;;;22.10;;
75386;SDS011;63966;47.914;22.266;2022-11-15T14:25:32;45.67;;;22.60;;
75386;SDS011;63966;47.914;22.266;2022-11-15T14:28:37;56.97;;;29.23;;
75386;SDS011;63966;47.914;22.266;2022-11-15T14:31:41;65.70;;;33.50;;
75386;SDS011;63966;47.914;22.266;2022-11-15T14:34:45;108.80;;;47.75;;
75386;SDS011;63966;47.914;22.266;2022-11-15T14:37:49;77.03;;;37.60;;
75386;SDS011;63966;47.914;22.266;2022-11-15T14:40:53;56.60;;;30.30;;
75386;SDS011;63966;47.914;22.266;2022-11-15T14:43:57;60.67;;;31.33;;
75386;SDS011;63966;47.914;22.266;2022-11-15T14:47:01;48.08;;;25.75;;
75386;SDS011;63966;47.914;22.266;2022-11-15T14:50:05;36.50;;;21.50;;
75386;SDS011;63966;47.914;22.266;2022-11-15T14:53:19;33.10;;;21.13;;
75386;SDS011;63966;47.914;22.266;2022-11-15T14:56:24;52.63;;;33.63;;
75386;SDS011;63966;47.914;22.266;2022-11-15T14:59:27;51.65;;;36.42;;
75386;SDS011;63966;47.914;22.266;2022-11-15T15:02:31;60.85;;;39.72;;
75386;SDS011;63966;47.914;22.266;2022-11-15T15:05:39;64.03;;;43.67;;
75386;SDS011;63966;47.914;22.266;2022-11-15T15:08:45;67.50;;;44.63;;
75386;SDS011;63966;47.914;22.266;2022-11-15T15:11:52;63.20;;;42.23;;
75386;SDS011;63966;47.914;22.266;2022-11-15T15:14:56;69.47;;;42.97;;
75386;SDS011;63966;47.914;22.266;2022-11-15T15:18:00;56.28;;;35.22;;
75386;SDS011;63966;47.914;22.266;2022-11-15T15:21:20;53.53;;;31.83;;
75386;SDS011;63966;47.914;22.266;2022-11-15T15:24:38;52.03;;;30.47;;
75386;SDS011;63966;47.914;22.266;2022-11-15T15:27:41;63.60;;;33.97;;
75386;SDS011;63966;47.914;22.266;2022-11-15T15:30:47;61.30;;;33.17;;
75386;SDS011;63966;47.914;22.266;2022-11-15T15:33:51;72.50;;;38.15;;
75386;SDS011;63966;47.914;22.266;2022-11-15T15:40:25;69.13;;;35.30;;
75386;SDS011;63966;47.914;22.266;2022-11-15T15:43:30;53.20;;;30.27;;
75386;SDS011;63966;47.914;22.266;2022-11-15T15:46:33;59.67;;;31.52;;
75386;SDS011;63966;47.914;22.266;2022-11-15T15:49:37;63.00;;;32.95;;
75386;SDS011;63966;47.914;22.266;2022-11-15T15:52:41;67.53;;;32.65;;
75386;SDS011;63966;47.914;22.266;2022-11-15T15:55:44;76.47;;;36.27;;
75386;SDS011;63966;47.914;22.266;2022-11-15T15:58:48;69.60;;;36.17;;
75386;SDS011;63966;47.914;22.266;2022-11-15T16:01:51;67.00;;;34.70;;
75386;SDS011;63966;47.914;22.266;2022-11-15T16:04:56;78.32;;;39.58;;
75386;SDS011;63966;47.914;22.266;2022-11-15T16:07:59;74.07;;;37.40;;
75386;SDS011;63966;47.914;22.266;2022-11-15T16:11:04;59.97;;;31.77;;
75386;SDS011;63966;47.914;22.266;2022-11-15T16:14:08;60.93;;;31.80;;
75386;SDS011;63966;47.914;22.266;2022-11-15T16:17:14;50.30;;;26.35;;
75386;SDS011;63966;47.914;22.266;2022-11-15T16:20:28;73.65;;;38.90;;
75386;SDS011;63966;47.914;22.266;2022-11-15T16:23:37;95.32;;;44.97;;
75386;SDS011;63966;47.914;22.266;2022-11-15T16:26:41;97.00;;;48.37;;
75386;SDS011;63966;47.914;22.266;2022-11-15T16:29:45;85.57;;;45.63;;
75386;SDS011;63966;47.914;22.266;2022-11-15T16:32:49;83.40;;;45.03;;
75386;SDS011;63966;47.914;22.266;2022-11-15T16:35:53;110.00;;;57.85;;
75386;SDS011;63966;47.914;22.266;2022-11-15T16:38:57;129.48;;;64.00;;
75386;SDS011;63966;47.914;22.266;2022-11-15T16:42:01;119.27;;;59.07;;
75386;SDS011;63966;47.914;22.266;2022-11-15T16:45:05;120.93;;;57.33;;
75386;SDS011;63966;47.914;22.266;2022-11-15T16:48:23;109.63;;;53.47;;
75386;SDS011;63966;47.914;22.266;2022-11-15T16:51:28;114.30;;;53.22;;
75386;SDS011;63966;47.914;22.266;2022-11-15T16:54:32;111.45;;;52.97;;
75386;SDS011;63966;47.914;22.266;2022-11-15T16:57:35;114.93;;;51.37;;
75386;SDS011;63966;47.914;22.266;2022-11-15T17:00:41;104.13;;;47.67;;
75386;SDS011;63966;47.914;22.266;2022-11-15T17:03:45;85.60;;;40.58;;
75386;SDS011;63966;47.914;22.266;2022-11-15T17:06:49;82.10;;;40.63;;
75386;SDS011;63966;47.914;22.266;2022-11-15T17:09:52;101.30;;;42.47;;
75386;SDS011;63966;47.914;22.266;2022-11-15T17:12:56;120.33;;;47.83;;
75386;SDS011;63966;47.914;22.266;2022-11-15T17:16:06;119.23;;;46.43;;
75386;SDS011;63966;47.914;22.266;2022-11-15T17:19:19;69.10;;;34.83;;
75386;SDS011;63966;47.914;22.266;2022-11-15T17:22:22;49.40;;;25.35;;
75386;SDS011;63966;47.914;22.266;2022-11-15T17:25:26;64.93;;;30.65;;
75386;SDS011;63966;47.914;22.266;2022-11-15T17:28:33;73.57;;;34.13;;
75386;SDS011;63966;47.914;22.266;2022-11-15T17:31:37;73.80;;;34.17;;
75386;SDS011;63966;47.914;22.266;2022-11-15T17:34:41;61.30;;;31.30;;
75386;SDS011;63966;47.914;22.266;2022-11-15T17:37:44;59.65;;;30.52;;
75386;SDS011;63966;47.914;22.266;2022-11-15T17:40:58;63.97;;;34.15;;
75386;SDS011;63966;47.914;22.266;2022-11-15T17:44:03;85.83;;;43.60;;
75386;SDS011;63966;47.914;22.266;2022-11-15T17:47:06;80.17;;;39.37;;
75386;SDS011;63966;47.914;22.266;2022-11-15T17:50:10;100.15;;;49.17;;
75386;SDS011;63966;47.914;22.266;2022-11-15T17:53:14;107.35;;;53.10;;
75386;SDS011;63966;47.914;22.266;2022-11-15T17:56:18;117.07;;;55.90;;
75386;SDS011;63966;47.914;22.266;2022-11-15T17:59:23;127.03;;;57.13;;
75386;SDS011;63966;47.914;22.266;2022-11-15T18:02:27;112.00;;;54.67;;
75386;SDS011;63966;47.914;22.266;2022-11-15T18:05:31;101.38;;;48.10;;
75386;SDS011;63966;47.914;22.266;2022-11-15T18:08:35;98.85;;;49.28;;
75386;SDS011;63966;47.914;22.266;2022-11-15T18:11:40;111.97;;;54.85;;
75386;SDS011;63966;47.914;22.266;2022-11-15T18:14:46;130.13;;;63.70;;
75386;SDS011;63966;47.914;22.266;2022-11-15T18:17:49;156.50;;;68.50;;
75386;SDS011;63966;47.914;22.266;2022-11-15T18:21:28;133.18;;;63.05;;
75386;SDS011;63966;47.914;22.266;2022-11-15T18:24:28;131.23;;;62.03;;
75386;SDS011;63966;47.914;22.266;2022-11-15T18:27:33;121.28;;;62.15;;
75386;SDS011;63966;47.914;22.266;2022-11-15T18:30:37;114.80;;;56.17;;
75386;SDS011;63966;47.914;22.266;2022-11-15T18:33:42;151.97;;;64.30;;
75386;SDS011;63966;47.914;22.266;2022-11-15T18:36:48;148.85;;;66.60;;
75386;SDS011;63966;47.914;22.266;2022-11-15T18:39:53;122.95;;;59.15;;
75386;SDS011;63966;47.914;22.266;2022-11-15T18:42:57;100.75;;;48.72;;
75386;SDS011;63966;47.914;22.266;2022-11-15T18:46:01;79.10;;;43.13;;
75386;SDS011;63966;47.914;22.266;2022-11-15T18:49:05;84.47;;;44.23;;
75386;SDS011;63966;47.914;22.266;2022-11-15T18:52:11;92.10;;;46.50;;
75386;SDS011;63966;47.914;22.266;2022-11-15T18:55:15;86.43;;;45.20;;
75386;SDS011;63966;47.914;22.266;2022-11-15T18:58:18;155.65;;;65.40;;
75386;SDS011;63966;47.914;22.266;2022-11-15T19:01:23;174.10;;;71.40;;
75386;SDS011;63966;47.914;22.266;2022-11-15T19:04:28;187.00;;;76.97;;
75386;SDS011;63966;47.914;22.266;2022-11-15T19:07:31;170.60;;;73.80;;
75386;SDS011;63966;47.914;22.266;2022-11-15T19:10:37;150.35;;;70.47;;
75386;SDS011;63966;47.914;22.266;2022-11-15T19:13:41;122.25;;;60.83;;
75386;SDS011;63966;47.914;22.266;2022-11-15T19:16:46;85.53;;;45.60;;
75386;SDS011;63966;47.914;22.266;2022-11-15T19:19:53;79.17;;;41.17;;
75386;SDS011;63966;47.914;22.266;2022-11-15T19:22:57;84.10;;;43.08;;
75386;SDS011;63966;47.914;22.266;2022-11-15T19:26:02;75.65;;;41.05;;
75386;SDS011;63966;47.914;22.266;2022-11-15T19:29:12;68.07;;;38.80;;
75386;SDS011;63966;47.914;22.266;2022-11-15T19:32:16;70.00;;;38.37;;
75386;SDS011;63966;47.914;22.266;2022-11-15T19:35:20;66.50;;;35.87;;
75386;SDS011;63966;47.914;22.266;2022-11-15T19:38:23;51.95;;;30.02;;
75386;SDS011;63966;47.914;22.266;2022-11-15T19:41:27;55.30;;;30.65;;
75386;SDS011;63966;47.914;22.266;2022-11-15T19:44:31;52.20;;;29.77;;
75386;SDS011;63966;47.914;22.266;2022-11-15T19:47:34;47.20;;;28.23;;
75386;SDS011;63966;47.914;22.266;2022-11-15T19:50:39;46.17;;;27.03;;
75386;SDS011;63966;47.914;22.266;2022-11-15T19:53:42;49.78;;;27.73;;
75386;SDS011;63966;47.914;22.266;2022-11-15T19:56:46;69.65;;;37.95;;
75386;SDS011;63966;47.914;22.266;2022-11-15T19:59:50;59.08;;;33.33;;
75386;SDS011;63966;47.914;22.266;2022-11-15T20:02:53;58.77;;;32.93;;
75386;SDS011;63966;47.914;22.266;2022-11-15T20:09:11;54.72;;;31.48;;
75386;SDS011;63966;47.914;22.266;2022-11-15T20:12:17;52.83;;;31.35;;
75386;SDS011;63966;47.914;22.266;2022-11-15T20:15:20;55.25;;;31.45;;
75386;SDS011;63966;47.914;22.266;2022-11-15T20:18:24;70.17;;;36.77;;
75386;SDS011;63966;47.914;22.266;2022-11-15T20:21:29;82.63;;;42.00;;
75386;SDS011;63966;47.914;22.266;2022-11-15T20:24:32;97.32;;;48.20;;
75386;SDS011;63966;47.914;22.266;2022-11-15T20:27:36;91.72;;;48.42;;